createdAt,value
2018-08-03T00:00:26.254Z,49.10
2018-08-03T00:01:30.653Z,49.19
2018-08-03T00:02:35.246Z,48.95
2018-08-03T00:03:39.498Z,49.35
2018-08-03T00:04:43.756Z,48.87
2018-08-03T00:05:47.998Z,48.82
2018-08-03T00:06:52.272Z,48.84
2018-08-03T00:07:56.621Z,48.55
2018-08-03T00:09:00.799Z,49.36
2018-08-03T00:10:06.559Z,48.54
2018-08-03T00:11:10.813Z,49.65
2018-08-03T00:12:15.142Z,48.85
2018-08-03T00:13:19.275Z,48.62
2018-08-03T00:14:23.510Z,48.87
2018-08-03T00:15:27.754Z,49.04
2018-08-03T00:16:32.065Z,49.09
2018-08-03T00:17:36.696Z,48.90
2018-08-03T00:18:40.883Z,49.19
2018-08-03T00:19:45.498Z,48.77
2018-08-03T00:20:50.011Z,48.86
2018-08-03T00:21:54.367Z,49.35
2018-08-03T00:22:58.659Z,48.92
2018-08-03T00:24:02.962Z,48.62
2018-08-03T00:25:07.938Z,49.21
2018-08-03T00:26:12.179Z,49.41
2018-08-03T00:27:16.350Z,49.15
2018-08-03T00:28:20.573Z,48.61
2018-08-03T00:29:24.711Z,48.61
2018-08-03T00:30:28.882Z,49.27
2018-08-03T00:31:33.281Z,48.94
2018-08-03T00:32:37.500Z,49.05
2018-08-03T00:33:42.114Z,49.48
2018-08-03T00:34:46.333Z,48.87
2018-08-03T00:35:50.849Z,48.73
2018-08-03T00:36:55.066Z,48.57
2018-08-03T00:37:59.526Z,49.00
2018-08-03T00:39:04.650Z,48.75
2018-08-03T00:40:08.886Z,49.29
2018-08-03T00:41:13.105Z,48.85
2018-08-03T00:42:17.329Z,48.46
2018-08-03T00:43:21.694Z,48.74
2018-08-03T00:44:25.955Z,48.67
2018-08-03T00:45:30.321Z,48.64
2018-08-03T00:46:34.533Z,48.87
2018-08-03T00:47:38.909Z,49.00
2018-08-03T00:48:43.126Z,48.82
2018-08-03T00:49:47.329Z,48.68
2018-08-03T00:50:51.530Z,48.72
2018-08-03T00:51:55.801Z,48.79
2018-08-03T00:52:59.989Z,48.67
2018-08-03T00:54:04.429Z,49.12
2018-08-03T00:55:08.755Z,49.39
2018-08-03T00:56:12.922Z,49.32
2018-08-03T00:57:17.221Z,49.34
2018-08-03T00:58:21.613Z,48.87
2018-08-03T00:59:26.174Z,49.51
2018-08-03T01:00:30.365Z,48.51
2018-08-03T01:01:34.828Z,48.59
2018-08-03T01:02:39.005Z,49.32
2018-08-03T01:03:43.303Z,48.60
2018-08-03T01:04:47.475Z,49.15
2018-08-03T01:05:51.773Z,48.99
2018-08-03T01:06:55.998Z,48.89
2018-08-03T01:08:00.200Z,49.48
2018-08-03T01:09:07.079Z,49.39
2018-08-03T01:10:11.448Z,49.10
2018-08-03T01:11:15.768Z,48.78
2018-08-03T01:12:20.060Z,48.67
2018-08-03T01:13:24.278Z,49.06
2018-08-03T01:14:28.453Z,48.82
2018-08-03T01:15:32.693Z,48.89
2018-08-03T01:16:42.201Z,48.86
2018-08-03T01:17:46.320Z,48.88
2018-08-03T01:18:50.712Z,49.08
2018-08-03T01:19:54.893Z,48.93
2018-08-03T01:20:59.317Z,48.93
2018-08-03T01:22:03.736Z,48.90
2018-08-03T01:23:08.047Z,48.70
2018-08-03T01:24:12.214Z,49.06
2018-08-03T01:25:16.556Z,48.83
2018-08-03T01:26:20.989Z,49.37
2018-08-03T01:27:25.196Z,48.86
2018-08-03T01:28:29.513Z,48.89
2018-08-03T01:29:33.789Z,49.43
2018-08-03T01:30:37.998Z,49.40
2018-08-03T01:31:42.189Z,49.02
2018-08-03T01:32:46.437Z,48.81
2018-08-03T01:33:51.030Z,48.92
2018-08-03T01:34:55.235Z,48.90
2018-08-03T01:35:59.633Z,49.69
2018-08-03T01:37:03.901Z,49.83
2018-08-03T01:38:08.452Z,49.12
2018-08-03T01:39:12.695Z,49.47
2018-08-03T01:40:16.857Z,49.83
2018-08-03T01:41:21.172Z,49.83
2018-08-03T01:42:25.318Z,49.87
2018-08-03T01:43:29.482Z,49.53
2018-08-03T01:44:33.821Z,49.71
2018-08-03T01:45:38.153Z,49.69
2018-08-03T01:46:42.313Z,49.53
2018-08-03T01:47:46.694Z,50.02
2018-08-03T01:48:51.136Z,50.04
2018-08-03T01:49:55.298Z,49.30
2018-08-03T01:50:59.846Z,50.04
2018-08-03T01:52:04.048Z,49.87
2018-08-03T01:53:08.427Z,49.76
2018-08-03T01:54:12.557Z,49.47
2018-08-03T01:55:17.068Z,49.60
2018-08-03T01:56:21.202Z,50.03
2018-08-03T01:57:25.505Z,49.70
2018-08-03T01:58:29.769Z,49.55
2018-08-03T01:59:34.041Z,50.21
2018-08-03T02:00:38.510Z,50.38
2018-08-03T02:01:43.079Z,49.66
2018-08-03T02:02:47.381Z,49.71
2018-08-03T02:03:51.796Z,50.09
2018-08-03T02:04:56.108Z,50.42
2018-08-03T02:06:00.332Z,49.81
2018-08-03T02:07:04.526Z,50.23
2018-08-03T02:08:08.760Z,50.12
2018-08-03T02:09:12.960Z,50.51
2018-08-03T02:10:17.199Z,50.45
2018-08-03T02:11:21.434Z,49.94
2018-08-03T02:12:25.623Z,50.13
2018-08-03T02:13:29.807Z,50.77
2018-08-03T02:14:34.234Z,50.29
2018-08-03T02:15:38.629Z,50.78
2018-08-03T02:16:43.277Z,50.47
2018-08-03T02:17:47.447Z,50.52
2018-08-03T02:18:51.870Z,50.82
2018-08-03T02:19:56.108Z,50.65
2018-08-03T02:21:00.322Z,50.93
2018-08-03T02:22:04.812Z,50.71
2018-08-03T02:23:09.134Z,50.57
2018-08-03T02:24:13.346Z,50.91
2018-08-03T02:25:17.681Z,50.96
2018-08-03T02:26:21.953Z,50.70
2018-08-03T02:27:26.101Z,51.07
2018-08-03T02:28:30.286Z,50.38
2018-08-03T02:29:34.705Z,51.09
2018-08-03T02:30:38.934Z,51.06
2018-08-03T02:31:43.305Z,50.97
2018-08-03T02:32:47.494Z,50.65
2018-08-03T02:33:51.994Z,50.89
2018-08-03T02:34:56.226Z,51.25
2018-08-03T02:36:00.558Z,51.07
2018-08-03T02:37:04.786Z,51.02
2018-08-03T02:38:09.387Z,51.40
2018-08-03T02:39:13.577Z,51.16
2018-08-03T02:40:17.783Z,51.00
2018-08-03T02:41:22.092Z,51.17
2018-08-03T02:42:26.257Z,51.58
2018-08-03T02:43:30.706Z,51.38
2018-08-03T02:44:34.920Z,51.15
2018-08-03T02:45:39.146Z,50.96
2018-08-03T02:46:43.428Z,50.98
2018-08-03T02:47:47.622Z,51.71
2018-08-03T02:48:51.818Z,51.03
2018-08-03T02:49:56.065Z,50.65
2018-08-03T02:51:00.273Z,51.74
2018-08-03T02:52:04.605Z,51.58
2018-08-03T02:53:09.110Z,51.10
2018-08-03T02:54:13.534Z,51.58
2018-08-03T02:55:17.727Z,51.30
2018-08-03T02:56:21.991Z,51.92
2018-08-03T02:57:26.310Z,51.99
2018-08-03T02:58:30.701Z,51.67
2018-08-03T02:59:35.124Z,51.70
2018-08-03T03:00:47.772Z,51.51
2018-08-03T03:01:52.036Z,51.94
2018-08-03T03:02:56.242Z,51.82
2018-08-03T03:04:00.558Z,51.60
2018-08-03T03:05:04.870Z,51.33
2018-08-03T03:06:09.098Z,51.65
2018-08-03T03:07:13.266Z,52.06
2018-08-03T03:08:17.496Z,52.07
2018-08-03T03:09:21.849Z,51.76
2018-08-03T03:10:26.040Z,51.94
2018-08-03T03:11:30.191Z,51.53
2018-08-03T03:12:34.701Z,52.11
2018-08-03T03:13:39.114Z,52.16
2018-08-03T03:14:43.377Z,51.67
2018-08-03T03:15:47.524Z,51.52
2018-08-03T03:16:51.742Z,52.13
2018-08-03T03:17:56.161Z,52.29
2018-08-03T03:19:00.643Z,52.27
2018-08-03T03:20:05.149Z,51.85
2018-08-03T03:21:09.302Z,51.97
2018-08-03T03:22:13.530Z,51.97
2018-08-03T03:23:17.739Z,51.53
2018-08-03T03:24:21.921Z,52.33
2018-08-03T03:25:26.104Z,51.64
2018-08-03T03:26:30.283Z,51.88
2018-08-03T03:27:34.719Z,51.87
2018-08-03T03:28:39.013Z,51.60
2018-08-03T03:29:43.226Z,52.13
2018-08-03T03:30:47.406Z,51.66
2018-08-03T03:31:51.637Z,52.47
2018-08-03T03:32:55.786Z,51.97
2018-08-03T03:34:00.108Z,51.76
2018-08-03T03:35:04.739Z,52.39
2018-08-03T03:36:08.962Z,51.75
2018-08-03T03:37:13.353Z,51.96
2018-08-03T03:38:17.608Z,52.38
2018-08-03T03:39:21.814Z,52.14
2018-08-03T03:40:26.102Z,52.60
2018-08-03T03:41:30.495Z,52.57
2018-08-03T03:42:34.662Z,52.13
2018-08-03T03:43:38.918Z,52.20
2018-08-03T03:44:43.193Z,52.71
2018-08-03T03:45:47.466Z,52.68
2018-08-03T03:46:52.123Z,52.69
2018-08-03T03:47:56.295Z,51.97
2018-08-03T03:49:00.653Z,52.04
2018-08-03T03:50:05.897Z,52.47
2018-08-03T03:51:10.547Z,52.80
2018-08-03T03:52:14.790Z,52.22
2018-08-03T03:53:19.043Z,52.76
2018-08-03T03:54:23.430Z,52.54
2018-08-03T03:55:27.583Z,52.25
2018-08-03T03:56:31.810Z,52.76
2018-08-03T03:57:35.977Z,52.15
2018-08-03T03:58:40.213Z,52.27
2018-08-03T03:59:44.427Z,52.09
2018-08-03T04:00:48.675Z,52.71
2018-08-03T04:01:53.045Z,52.17
2018-08-03T04:02:57.406Z,52.48
2018-08-03T04:04:01.657Z,52.41
2018-08-03T04:05:06.581Z,52.18
2018-08-03T04:06:10.890Z,52.21
2018-08-03T04:07:15.149Z,52.28
2018-08-03T04:08:19.282Z,53.00
2018-08-03T04:09:23.510Z,52.77
2018-08-03T04:10:27.709Z,52.83
2018-08-03T04:11:31.998Z,53.01
2018-08-03T04:12:36.246Z,52.37
2018-08-03T04:13:40.652Z,52.75
2018-08-03T04:14:44.842Z,52.38
2018-08-03T04:15:49.129Z,53.15
2018-08-03T04:16:53.286Z,52.67
2018-08-03T04:17:57.486Z,52.94
2018-08-03T04:19:01.862Z,52.70
2018-08-03T04:20:06.490Z,53.02
2018-08-03T04:21:10.746Z,52.76
2018-08-03T04:22:15.187Z,53.16
2018-08-03T04:23:19.710Z,52.87
2018-08-03T04:24:23.959Z,52.80
2018-08-03T04:25:28.600Z,53.20
2018-08-03T04:26:32.730Z,52.75
2018-08-03T04:27:37.096Z,52.47
2018-08-03T04:28:41.264Z,52.94
2018-08-03T04:29:45.634Z,52.70
2018-08-03T04:30:49.857Z,53.31
2018-08-03T04:31:54.082Z,53.22
2018-08-03T04:32:58.295Z,52.55
2018-08-03T04:34:03.025Z,53.06
2018-08-03T04:35:07.398Z,53.21
2018-08-03T04:36:11.602Z,52.53
2018-08-03T04:37:15.816Z,53.06
2018-08-03T04:38:20.234Z,53.06
2018-08-03T04:39:24.805Z,53.31
2018-08-03T04:40:29.040Z,52.56
2018-08-03T04:41:33.226Z,52.73
2018-08-03T04:42:37.464Z,53.31
2018-08-03T04:43:41.699Z,53.31
2018-08-03T04:44:46.335Z,52.64
2018-08-03T04:45:50.489Z,53.30
2018-08-03T04:46:54.702Z,52.62
2018-08-03T04:47:58.997Z,53.36
2018-08-03T04:49:03.320Z,53.10
2018-08-03T04:50:07.610Z,52.65
2018-08-03T04:51:11.793Z,52.81
2018-08-03T04:52:16.232Z,52.72
2018-08-03T04:53:20.403Z,53.46
2018-08-03T04:54:24.852Z,52.95
2018-08-03T04:55:29.318Z,52.76
2018-08-03T04:56:33.789Z,53.23
2018-08-03T04:57:38.221Z,52.99
2018-08-03T04:58:42.450Z,53.49
2018-08-03T04:59:46.709Z,52.80
2018-08-03T05:00:50.989Z,53.36
2018-08-03T05:01:55.174Z,53.13
2018-08-03T05:02:59.414Z,52.82
2018-08-03T05:04:03.834Z,53.60
2018-08-03T05:05:08.206Z,53.47
2018-08-03T05:06:12.435Z,53.06
2018-08-03T05:07:16.831Z,52.86
2018-08-03T05:08:21.078Z,52.82
2018-08-03T05:09:25.262Z,53.08
2018-08-03T05:10:29.497Z,53.08
2018-08-03T05:11:33.784Z,53.59
2018-08-03T05:12:37.982Z,52.82
2018-08-03T05:13:42.257Z,53.18
2018-08-03T05:14:46.438Z,53.07
2018-08-03T05:15:50.806Z,53.56
2018-08-03T05:16:55.031Z,53.37
2018-08-03T05:17:59.289Z,53.28
2018-08-03T05:19:03.801Z,53.43
2018-08-03T05:20:08.520Z,53.06
2018-08-03T05:21:12.678Z,53.17
2018-08-03T05:22:17.232Z,53.13
2018-08-03T05:23:21.530Z,53.22
2018-08-03T05:24:25.999Z,53.36
2018-08-03T05:25:30.209Z,53.26
2018-08-03T05:26:34.457Z,52.79
2018-08-03T05:27:38.703Z,52.74
2018-08-03T05:28:43.193Z,52.97
2018-08-03T05:29:47.538Z,53.13
2018-08-03T05:30:51.725Z,52.86
2018-08-03T05:31:56.179Z,53.38
2018-08-03T05:33:00.790Z,52.85
2018-08-03T05:34:05.291Z,53.07
2018-08-03T05:35:09.721Z,52.63
2018-08-03T05:36:13.962Z,52.40
2018-08-03T05:37:18.627Z,52.67
2018-08-03T05:38:22.951Z,52.40
2018-08-03T05:39:27.142Z,52.53
2018-08-03T05:40:31.317Z,52.61
2018-08-03T05:41:35.703Z,51.81
2018-08-03T05:42:40.098Z,52.36
2018-08-03T05:43:44.350Z,52.37
2018-08-03T05:44:48.826Z,51.82
2018-08-03T05:45:53.021Z,51.63
2018-08-03T05:46:57.382Z,51.35
2018-08-03T05:48:01.612Z,51.31
2018-08-03T05:49:06.055Z,51.50
2018-08-03T05:50:10.285Z,51.11
2018-08-03T05:51:14.647Z,51.72
2018-08-03T05:52:18.779Z,51.33
2018-08-03T05:53:23.163Z,51.27
2018-08-03T05:54:27.408Z,51.13
2018-08-03T05:55:31.658Z,50.91
2018-08-03T05:56:35.946Z,51.07
2018-08-03T05:57:40.125Z,50.65
2018-08-03T05:58:44.623Z,50.49
2018-08-03T05:59:48.822Z,50.33
2018-08-03T06:00:53.173Z,50.73
2018-08-03T06:01:57.399Z,50.79
2018-08-03T06:03:01.803Z,50.52
2018-08-03T06:04:06.344Z,50.60
2018-08-03T06:05:10.551Z,50.29
2018-08-03T06:06:15.147Z,50.44
2018-08-03T06:07:19.376Z,50.38
2018-08-03T06:08:23.693Z,50.14
2018-08-03T06:09:27.956Z,49.08
2018-08-03T06:10:32.338Z,49.93
2018-08-03T06:11:36.649Z,49.40
2018-08-03T06:12:40.865Z,49.30
2018-08-03T06:13:45.058Z,50.01
2018-08-03T06:14:49.239Z,49.71
2018-08-03T06:15:53.598Z,49.21
2018-08-03T06:16:57.960Z,49.16
2018-08-03T06:18:02.460Z,48.91
2018-08-03T06:19:06.951Z,49.56
2018-08-03T06:20:12.778Z,49.12
2018-08-03T06:21:17.275Z,48.77
2018-08-03T06:22:21.493Z,48.71
2018-08-03T06:23:25.698Z,49.32
2018-08-03T06:24:30.651Z,49.52
2018-08-03T06:25:34.970Z,48.88
2018-08-03T06:26:39.354Z,48.66
2018-08-03T06:27:43.565Z,49.30
2018-08-03T06:28:47.817Z,48.85
2018-08-03T06:29:52.483Z,48.90
2018-08-03T06:30:56.827Z,48.31
2018-08-03T06:32:01.387Z,48.06
2018-08-03T06:33:05.586Z,47.68
2018-08-03T06:34:10.106Z,47.74
2018-08-03T06:35:14.467Z,47.89
2018-08-03T06:36:18.950Z,48.19
2018-08-03T06:37:23.149Z,47.61
2018-08-03T06:38:27.341Z,47.94
2018-08-03T06:39:31.518Z,47.51
2018-08-03T06:40:35.726Z,48.02
2018-08-03T06:41:39.994Z,47.41
2018-08-03T06:42:44.254Z,46.98
2018-08-03T06:43:48.457Z,46.77
2018-08-03T06:44:52.915Z,47.07
2018-08-03T06:45:57.337Z,47.25
2018-08-03T06:47:01.496Z,47.05
2018-08-03T06:48:05.764Z,46.86
2018-08-03T06:49:09.897Z,47.38
2018-08-03T06:50:14.259Z,47.35
2018-08-03T06:51:18.760Z,47.12
2018-08-03T06:52:23.112Z,46.61
2018-08-03T06:53:27.310Z,47.05
2018-08-03T06:54:31.577Z,46.55
2018-08-03T06:55:35.784Z,46.91
2018-08-03T06:56:39.974Z,47.33
2018-08-03T06:57:44.365Z,47.39
2018-08-03T06:58:48.686Z,47.02
2018-08-03T06:59:53.018Z,46.69
2018-08-03T07:00:57.922Z,47.20
2018-08-03T07:02:02.125Z,47.21
2018-08-03T07:03:06.366Z,46.95
2018-08-03T07:04:10.864Z,46.80
2018-08-03T07:05:15.102Z,46.55
2018-08-03T07:06:19.730Z,46.08
2018-08-03T07:07:24.020Z,46.57
2018-08-03T07:08:28.343Z,46.62
2018-08-03T07:09:32.521Z,46.74
2018-08-03T07:10:36.712Z,46.78
2018-08-03T07:11:40.895Z,46.29
2018-08-03T07:12:45.083Z,46.82
2018-08-03T07:13:49.482Z,46.70
2018-08-03T07:14:53.843Z,46.88
2018-08-03T07:15:58.056Z,46.94
2018-08-03T07:17:02.471Z,47.22
2018-08-03T07:18:07.131Z,46.85
2018-08-03T07:19:11.330Z,46.68
2018-08-03T07:20:15.766Z,46.59
2018-08-03T07:21:25.522Z,47.21
2018-08-03T07:22:29.766Z,47.14
2018-08-03T07:23:33.982Z,47.56
2018-08-03T07:24:38.238Z,47.08
2018-08-03T07:25:42.544Z,46.59
2018-08-03T07:26:46.792Z,47.04
2018-08-03T07:27:50.982Z,47.25
2018-08-03T07:28:55.365Z,46.97
2018-08-03T07:29:59.634Z,46.62
2018-08-03T07:31:03.970Z,47.05
2018-08-03T07:32:08.226Z,46.94
2018-08-03T07:33:12.404Z,46.62
2018-08-03T07:34:17.060Z,46.97
2018-08-03T07:35:21.286Z,46.90
2018-08-03T07:36:25.684Z,46.79
2018-08-03T07:37:29.917Z,47.20
2018-08-03T07:38:34.420Z,47.24
2018-08-03T07:39:39.173Z,46.81
2018-08-03T07:40:44.161Z,47.01
2018-08-03T07:41:48.744Z,46.91
2018-08-03T07:42:53.589Z,47.14
2018-08-03T07:43:58.232Z,47.00
2018-08-03T07:45:03.620Z,46.83
2018-08-03T07:46:09.299Z,46.59
2018-08-03T07:47:15.095Z,47.27
2018-08-03T07:48:20.273Z,46.48
2018-08-03T07:49:24.875Z,46.62
2018-08-03T07:50:29.155Z,46.88
2018-08-03T07:51:33.613Z,46.75
2018-08-03T07:52:37.954Z,46.88
2018-08-03T07:53:42.427Z,46.90
2018-08-03T07:54:47.033Z,46.90
2018-08-03T07:55:51.441Z,46.87
2018-08-03T07:56:55.797Z,46.72
2018-08-03T07:58:00.260Z,46.30
2018-08-03T07:59:05.419Z,46.60
2018-08-03T08:00:10.069Z,47.01
2018-08-03T08:01:15.886Z,46.85
2018-08-03T08:02:20.304Z,47.00
2018-08-03T08:03:24.705Z,46.47
2018-08-03T08:04:28.983Z,46.17
2018-08-03T08:05:33.491Z,47.17
2018-08-03T08:06:37.678Z,46.44
2018-08-03T08:07:41.894Z,46.77
2018-08-03T08:08:47.245Z,46.69
2018-08-03T08:09:51.608Z,46.55
2018-08-03T08:10:56.064Z,46.74
2018-08-03T08:12:00.240Z,47.10
2018-08-03T08:13:04.417Z,47.03
2018-08-03T08:14:08.958Z,46.60
2018-08-03T08:15:13.254Z,46.44
2018-08-03T08:16:17.493Z,46.46
2018-08-03T08:17:21.625Z,46.32
2018-08-03T08:18:25.904Z,45.78
2018-08-03T08:19:30.231Z,45.98
2018-08-03T08:20:34.375Z,45.83
2018-08-03T08:21:39.004Z,46.18
2018-08-03T08:22:43.358Z,46.33
2018-08-03T08:23:47.633Z,46.09
2018-08-03T08:24:51.855Z,46.35
2018-08-03T08:25:56.088Z,45.94
2018-08-03T08:27:00.308Z,45.96
2018-08-03T08:28:04.667Z,46.19
2018-08-03T08:29:08.843Z,46.10
2018-08-03T08:30:13.004Z,45.97
2018-08-03T08:31:17.205Z,46.21
2018-08-03T08:32:21.482Z,46.17
2018-08-03T08:33:25.676Z,45.99
2018-08-03T08:34:30.056Z,45.67
2018-08-03T08:35:34.285Z,46.01
2018-08-03T08:36:38.526Z,45.78
2018-08-03T08:37:42.757Z,45.85
2018-08-03T08:38:46.950Z,45.85
2018-08-03T08:39:51.410Z,45.91
2018-08-03T08:40:55.671Z,45.83
2018-08-03T08:41:59.851Z,45.38
2018-08-03T08:43:04.034Z,45.71
2018-08-03T08:44:08.285Z,45.58
2018-08-03T08:45:12.466Z,45.49
2018-08-03T08:46:16.671Z,45.70
2018-08-03T08:47:21.015Z,45.46
2018-08-03T08:48:25.194Z,45.81
2018-08-03T08:49:29.624Z,45.60
2018-08-03T08:50:33.781Z,45.60
2018-08-03T08:51:38.054Z,45.63
2018-08-03T08:52:42.321Z,45.55
2018-08-03T08:53:46.954Z,45.33
2018-08-03T08:54:51.299Z,45.42
2018-08-03T08:55:55.345Z,45.12
2018-08-03T08:56:59.647Z,45.21
2018-08-03T08:58:03.955Z,45.17
2018-08-03T08:59:08.136Z,45.57
2018-08-03T09:00:12.411Z,45.30
2018-08-03T09:01:16.599Z,45.23
2018-08-03T09:02:20.990Z,45.32
2018-08-03T09:03:25.196Z,45.35
2018-08-03T09:04:29.594Z,44.97
2018-08-03T09:05:33.843Z,45.14
2018-08-03T09:06:38.263Z,44.91
2018-08-03T09:07:42.621Z,44.96
2018-08-03T09:08:46.972Z,44.88
2018-08-03T09:09:51.118Z,44.80
2018-08-03T09:10:55.378Z,44.97
2018-08-03T09:11:59.541Z,44.63
2018-08-03T09:13:03.806Z,44.48
2018-08-03T09:14:08.225Z,44.40
2018-08-03T09:15:12.427Z,44.26
2018-08-03T09:16:16.797Z,44.56
2018-08-03T09:17:21.093Z,44.23
2018-08-03T09:18:25.351Z,44.37
2018-08-03T09:19:29.670Z,44.47
2018-08-03T09:20:33.913Z,44.45
2018-08-03T09:21:38.173Z,44.49
2018-08-03T09:22:42.434Z,44.31
2018-08-03T09:23:46.626Z,44.31
2018-08-03T09:24:50.888Z,44.40
2018-08-03T09:25:55.134Z,44.54
2018-08-03T09:26:59.341Z,44.11
2018-08-03T09:28:03.483Z,43.97
2018-08-03T09:29:07.850Z,44.18
2018-08-03T09:30:12.160Z,44.06
2018-08-03T09:31:16.425Z,43.85
2018-08-03T09:32:20.664Z,43.99
2018-08-03T09:33:25.079Z,43.67
2018-08-03T09:34:29.500Z,43.63
2018-08-03T09:35:33.737Z,43.57
2018-08-03T09:36:38.198Z,43.80
2018-08-03T09:37:42.307Z,43.50
2018-08-03T09:38:46.510Z,43.71
2018-08-03T09:39:51.174Z,43.41
2018-08-03T09:40:55.393Z,43.31
2018-08-03T09:41:59.655Z,43.51
2018-08-03T09:43:03.915Z,43.39
2018-08-03T09:44:09.119Z,43.51
2018-08-03T09:45:13.354Z,43.06
2018-08-03T09:46:17.666Z,43.28
2018-08-03T09:47:22.051Z,43.45
2018-08-03T09:48:26.290Z,43.20
2018-08-03T09:49:30.735Z,43.17
2018-08-03T09:50:35.350Z,43.25
2018-08-03T09:51:40.038Z,43.24
2018-08-03T09:52:44.439Z,43.22
2018-08-03T09:53:48.738Z,43.11
2018-08-03T09:54:53.149Z,42.82
2018-08-03T09:55:57.592Z,43.16
2018-08-03T09:57:01.794Z,43.06
2018-08-03T09:58:06.191Z,43.02
2018-08-03T09:59:10.763Z,42.90
2018-08-03T10:00:16.636Z,42.94
2018-08-03T10:01:21.090Z,42.96
2018-08-03T10:02:25.404Z,43.37
2018-08-03T10:03:29.935Z,42.37
2018-08-03T10:04:34.344Z,42.81
2018-08-03T10:05:38.690Z,42.63
2018-08-03T10:06:42.999Z,42.80
2018-08-03T10:07:47.354Z,42.69
2018-08-03T10:08:52.336Z,42.61
2018-08-03T10:09:56.569Z,42.52
2018-08-03T10:11:00.885Z,42.62
2018-08-03T10:12:05.130Z,42.81
2018-08-03T10:13:09.375Z,42.58
2018-08-03T10:14:13.787Z,42.70
2018-08-03T10:15:18.200Z,42.45
2018-08-03T10:16:22.534Z,42.40
2018-08-03T10:17:26.721Z,42.35
2018-08-03T10:18:31.508Z,42.35
2018-08-03T10:19:36.131Z,42.21
2018-08-03T10:20:40.530Z,42.02
2018-08-03T10:21:44.766Z,42.08
2018-08-03T10:22:49.225Z,41.99
2018-08-03T10:23:53.475Z,41.52
2018-08-03T10:24:57.693Z,41.74
2018-08-03T10:26:01.943Z,41.79
2018-08-03T10:27:06.135Z,41.73
2018-08-03T10:28:10.396Z,41.92
2018-08-03T10:29:14.712Z,41.81
2018-08-03T10:30:18.954Z,41.66
2018-08-03T10:31:23.252Z,41.71
2018-08-03T10:32:27.460Z,41.17
2018-08-03T10:33:31.956Z,41.17
2018-08-03T10:34:36.813Z,41.65
2018-08-03T10:35:41.592Z,41.65
2018-08-03T10:36:45.766Z,41.66
2018-08-03T10:37:50.039Z,41.39
2018-08-03T10:38:54.545Z,41.26
2018-08-03T10:39:58.851Z,41.12
2018-08-03T10:41:03.131Z,41.42
2018-08-03T10:42:07.436Z,41.63
2018-08-03T10:43:11.709Z,41.29
2018-08-03T10:44:15.923Z,41.16
2018-08-03T10:45:20.201Z,41.53
2018-08-03T10:46:24.428Z,41.10
2018-08-03T10:47:28.745Z,40.84
2018-08-03T10:48:33.138Z,40.90
2018-08-03T10:49:37.476Z,41.18
2018-08-03T10:50:41.843Z,40.83
2018-08-03T10:51:46.219Z,40.78
2018-08-03T10:52:50.807Z,40.75
2018-08-03T10:53:54.986Z,41.26
2018-08-03T10:54:59.321Z,40.89
2018-08-03T10:56:03.608Z,40.91
2018-08-03T10:57:08.010Z,40.91
2018-08-03T10:58:12.244Z,40.91
2018-08-03T10:59:16.491Z,40.58
2018-08-03T11:00:26.191Z,41.09
2018-08-03T11:01:30.573Z,41.07
2018-08-03T11:02:34.845Z,40.44
2018-08-03T11:03:39.100Z,40.49
2018-08-03T11:04:43.334Z,40.68
2018-08-03T11:05:47.655Z,40.46
2018-08-03T11:06:52.022Z,40.91
2018-08-03T11:07:56.515Z,40.71
2018-08-03T11:09:00.713Z,39.89
2018-08-03T11:10:05.020Z,40.30
2018-08-03T11:11:09.223Z,40.66
2018-08-03T11:12:13.628Z,39.25
2018-08-03T11:13:17.890Z,39.49
2018-08-03T11:14:22.254Z,39.49
2018-08-03T11:15:26.517Z,39.96
2018-08-03T11:16:30.754Z,40.28
2018-08-03T11:17:35.140Z,39.62
2018-08-03T11:18:39.674Z,39.90
2018-08-03T11:19:44.763Z,39.19
2018-08-03T11:20:48.991Z,39.31
2018-08-03T11:21:53.394Z,38.86
2018-08-03T11:22:58.019Z,38.39
2018-08-03T11:24:02.532Z,38.16
2018-08-03T11:25:07.602Z,38.54
2018-08-03T11:26:11.823Z,38.23
2018-08-03T11:27:16.066Z,37.78
2018-08-03T11:28:20.281Z,37.94
2018-08-03T11:29:24.517Z,37.43
2018-08-03T11:30:28.719Z,36.91
2018-08-03T11:31:42.158Z,37.54
2018-08-03T11:32:46.407Z,36.43
2018-08-03T11:33:50.634Z,36.93
2018-08-03T11:34:55.137Z,36.01
2018-08-03T11:35:59.462Z,35.86
2018-08-03T11:37:03.685Z,35.91
2018-08-03T11:38:08.147Z,36.10
2018-08-03T11:39:13.004Z,35.27
2018-08-03T11:40:17.380Z,35.41
2018-08-03T11:41:21.556Z,34.90
2018-08-03T11:42:25.815Z,35.26
2018-08-03T11:43:30.146Z,34.82
2018-08-03T11:44:34.822Z,34.27
2018-08-03T11:45:39.086Z,34.36
2018-08-03T11:48:11.543Z,34.31
2018-08-03T11:49:15.906Z,34.56
2018-08-03T11:50:20.205Z,34.37
2018-08-03T11:51:24.581Z,34.44
2018-08-03T11:52:28.887Z,34.34
2018-08-03T11:53:33.448Z,34.45
2018-08-03T11:54:37.942Z,34.71
2018-08-03T11:55:42.155Z,33.89
2018-08-03T11:56:46.463Z,33.60
2018-08-03T11:57:50.668Z,33.62
2018-08-03T11:58:55.753Z,34.24
2018-08-03T11:59:59.974Z,33.98
2018-08-03T12:01:04.387Z,32.97
2018-08-03T12:02:08.934Z,33.12
2018-08-03T12:03:13.343Z,33.56
2018-08-03T12:04:17.533Z,33.03
2018-08-03T12:05:21.760Z,32.86
2018-08-03T12:06:26.011Z,32.46
2018-08-03T12:07:30.274Z,32.25
2018-08-03T12:08:34.564Z,32.59
2018-08-03T12:09:38.876Z,32.48
2018-08-03T12:10:43.395Z,32.64
2018-08-03T12:11:47.657Z,32.19
2018-08-03T12:12:51.923Z,32.92
2018-08-03T12:13:56.178Z,32.45
2018-08-03T12:15:00.853Z,31.74
2018-08-03T12:16:05.088Z,31.82
2018-08-03T12:17:09.470Z,32.24
2018-08-03T12:18:14.633Z,32.31
2018-08-03T12:19:18.810Z,32.64
2018-08-03T12:20:23.117Z,32.64
2018-08-03T12:21:27.969Z,32.79
2018-08-03T12:22:32.269Z,33.09
2018-08-03T12:23:37.180Z,32.70
2018-08-03T12:24:41.496Z,33.38
2018-08-03T12:25:45.719Z,33.91
2018-08-03T12:26:50.060Z,33.66
2018-08-03T12:27:54.283Z,33.62
2018-08-03T12:29:00.141Z,33.83
2018-08-03T12:30:09.445Z,33.97
2018-08-03T12:31:13.883Z,33.79
2018-08-03T12:32:18.370Z,34.13
2018-08-03T12:33:22.558Z,33.56
2018-08-03T12:34:26.798Z,33.60
2018-08-03T12:35:31.325Z,33.22
2018-08-03T12:36:35.564Z,33.34
2018-08-03T12:37:40.202Z,33.18
2018-08-03T12:38:44.606Z,33.47
2018-08-03T12:39:48.894Z,33.38
2018-08-03T12:40:53.109Z,33.67
2018-08-03T12:41:57.621Z,33.08
2018-08-03T12:43:01.907Z,33.69
2018-08-03T12:44:06.719Z,33.58
2018-08-03T12:45:10.943Z,33.18
2018-08-03T12:46:15.393Z,33.38
2018-08-03T12:47:19.662Z,32.49
2018-08-03T12:48:23.911Z,32.74
2018-08-03T12:49:28.167Z,32.92
2018-08-03T12:50:32.505Z,32.52
2018-08-03T12:51:36.893Z,32.58
2018-08-03T12:52:41.174Z,33.20
2018-08-03T12:53:45.399Z,33.24
2018-08-03T12:54:49.703Z,33.28
2018-08-03T12:55:54.010Z,33.27
2018-08-03T12:56:58.303Z,33.11
2018-08-03T12:58:02.504Z,32.85
2018-08-03T12:59:06.772Z,32.98
2018-08-03T13:00:11.187Z,32.77
2018-08-03T13:01:15.512Z,33.47
2018-08-03T13:02:19.716Z,33.18
2018-08-03T13:03:24.219Z,32.62
2018-08-03T13:04:28.525Z,33.11
2018-08-03T13:05:32.783Z,33.66
2018-08-03T13:06:36.995Z,33.25
2018-08-03T13:07:41.237Z,33.61
2018-08-03T13:08:45.500Z,33.01
2018-08-03T13:09:49.799Z,33.21
2018-08-03T13:10:54.015Z,33.45
2018-08-03T13:11:58.390Z,32.70
2018-08-03T13:13:07.522Z,32.84
2018-08-03T13:14:11.710Z,33.13
2018-08-03T13:15:16.243Z,32.67
2018-08-03T13:16:20.651Z,32.60
2018-08-03T13:17:25.245Z,32.79
2018-08-03T13:18:30.115Z,32.60
2018-08-03T13:19:34.319Z,33.14
2018-08-03T13:20:38.602Z,32.78
2018-08-03T13:21:43.164Z,33.73
2018-08-03T13:22:47.432Z,32.97
2018-08-03T13:23:55.790Z,32.89
2018-08-03T13:24:59.988Z,32.77
2018-08-03T13:26:04.219Z,32.54
2018-08-03T13:27:08.431Z,33.37
2018-08-03T13:28:12.683Z,33.24
2018-08-03T13:29:16.935Z,32.90
2018-08-03T13:30:21.117Z,33.43
2018-08-03T13:31:26.532Z,33.29
2018-08-03T13:32:31.059Z,32.78
2018-08-03T13:33:35.327Z,32.72
2018-08-03T13:34:39.614Z,32.30
2018-08-03T13:35:44.331Z,32.29
2018-08-03T13:36:48.800Z,32.37
2018-08-03T13:37:53.026Z,32.00
2018-08-03T13:38:57.328Z,32.30
2018-08-03T13:40:01.809Z,31.76
2018-08-03T13:41:06.207Z,32.34
2018-08-03T13:42:10.495Z,32.55
2018-08-03T13:43:14.752Z,32.56
2018-08-03T13:44:19.046Z,32.01
2018-08-03T13:45:23.282Z,32.44
2018-08-03T13:46:27.494Z,32.09
2018-08-03T13:47:31.795Z,32.60
2018-08-03T13:48:36.035Z,32.11
2018-08-03T13:49:40.399Z,32.79
2018-08-03T13:50:44.875Z,32.76